Terminal Aerodrome Forecast
Issued by NWS

Home | Current Version | Previous Version | Text Only | Print | Product List | Glossary On
Versions: 1 2 3 4 5 6 7 8 9 10 11 12 13 14 15 16 17 18 19 20 21 22 23 24
000
FTUS43 KILX 290522
TAFBMI
TAF
KBMI 290522Z 2906/3006 23008KT P6SM VCSH SCT030 BKN060
      TEMPO 2906/2907 3SM TSRA BKN015CB
     FM290800 22007KT P6SM BKN090
     FM291200 24009KT P6SM SCT120
     FM291600 27013KT P6SM SCT040
     FM300100 VRB03KT P6SM SKC=

USA.gov is the U.S. government's official web portal to all federal, state and local government web resources and services.